Zaqatala, Azerbaijan

2:50 PM +04 on August 16, 2018 (GMT +0400)
Zakataly | | Change Station

Elev 1280 ft 41.56 °N, 46.67 °E | Updated 50 minutes ago

Clear
Clear
82 °F
Feels Like 83 °F
N
5
Wind Variable Wind from WNW

Today
High -- | Low -- °F
--% Chance of Precip.
Yesterday
High -- | Low -- °F
Precip. -- in
Pressure 30.06 in
Visibility 6.2 miles
Clouds Few 4500 ft
Heat Index 83 °F
Dew Point 61 °F
Humidity 48%
Rainfall 0.00 in
Snow Depth Not available.
6:02 AM 7:52 PM
Waxing Crescent, 31% visible
METAR UBBY 161000Z 30004KT 9999 FEW045 28/16 Q1018 R33/////// NOSIG RMK MT OP
Pressure 30.06 in
Visibility 6.2 miles
Clouds Few 4500 ft
Heat Index 83 °F
Dew Point 61 °F
Humidity 48%
Rainfall 0.00 in
Snow Depth Not available.
6:02 AM 7:52 PM
Waxing Crescent, 31% visible
METAR UBBY 161000Z 30004KT 9999 FEW045 28/16 Q1018 R33/////// NOSIG RMK MT OP

Get Severe Weather Alerts

Thanks for signing up!

Be on the lookout for a verification email in your inbox.

You'll start receiving the daily forecast at 6 AM.

×

10-Day Weather Forecast

No radar image for this location.
×

Almanac

Astronomy

Aug. 16, 2018 Rise Set
Actual Time
Civil Twilight
Nautical Twilight
Astronomical Twilight
Moon
Length of Visible Light
Length of Day
Tomorrow will be .
, % of the Moon is Illuminated

Today's Extremes

Country Highs Country Lows

Community

WunderPhotos

Category 6

Welcome to Category 6. This is the collective home for Weather Underground's featured writeups by Dr. Jeff Masters (right), Bob Henson (left), Chris Burt, and other regular contributors.

Nearby

Air Quality

  Air Quality AQ Index Pollutant
Not available.

Snow Depth

Station Depth Elevation

Earthquake Activity

City Distance Mag. Time & Date
Minimum magnitude displayed is 2.5.

Coastal Water Temperatures

Place Temperature

Stations

Nearby Weather Stations

Station Location Temp. Windchill Dew Point Humidity Wind Precip. Elev Updated Type